Flight Track Log - Related Links

Times and Time Zones

All times are in EDT time to prevent confusion due to time zone crossing. See the SKW6330 flight status page for this flight to view local times or setup timezone preferences in your user account.

Time Position Orientation Groundspeed Altitude Reporting Facility
EDT Latitude Longitude Course Direction KTS MPH feet Rate Location/Type
Wed 07:42:21 PM 33.9522 -118.4742 335° Northwest 139 160 2,600  Level Los Angeles Center
Wed 07:43:23 PM 33.9594 -118.5319 279° West 172 198 4,100 1,500 Climbing Los Angeles Center
Wed 07:44:25 PM 33.9656 -118.5975 276° West 192 221 5,700 1,403 Climbing Los Angeles Center
Wed 07:45:00 PM 34.2187 -118.5520 320° Northwest  Level FlightAware Approximate
Wed 07:45:27 PM 34.0075 -118.6367 322° Northwest 199 229 7,000  Level Los Angeles Center
Wed 07:46:00 PM 34.2924 -118.5879 338° Northwest  Level FlightAware Approximate
Wed 07:46:29 PM 34.0694 -118.6561 345° North 227 261 6,900  Level Los Angeles Center
Wed 07:47:00 PM 34.3526 -118.6200 335° Northwest  Level FlightAware Approximate
Wed 07:47:31 PM 34.1256 -118.6728 346° North 226 260 7,500  Level Los Angeles Center
Wed 07:48:33 PM 34.1789 -118.6867 348° North 205 236 9,400 1,790 Climbing Los Angeles Center
Wed 07:49:35 PM 34.2442 -118.7000 350° North 200 230 11,200 1,258 Climbing Los Angeles Center
Wed 07:50:37 PM 34.3039 -118.7083 353° North 215 247 12,000 339 Climbing Los Angeles Center
Wed 07:51:39 PM 34.3714 -118.7142 356° North 241 277 11,900  Descending Los Angeles Center
Wed 07:52:41 PM 34.4258 -118.7178 357° North 245 282 12,000 48 Climbing Los Angeles Center
Wed 07:53:43 PM 34.5064 -118.7247 356° North 243 280 12,000  Level Los Angeles Center
Wed 07:54:45 PM 34.5697 -118.7475 344° North 238 274 12,000 528 Level Los Angeles Center
Wed 07:55:48 PM 34.6392 -118.7836 337° Northwest 219 252 13,100 960 Climbing Los Angeles Center
Wed 07:56:50 PM 34.6967 -118.8136 337° Northwest 225 259 14,000 387 Climbing Los Angeles Center
Wed 07:57:52 PM 34.7675 -118.8450 340° North 248 285 13,900 145 Descending Los Angeles Center
Wed 07:58:54 PM 34.8264 -118.8731 339° North 248 285 14,300 774 Climbing Los Angeles Center
Wed 07:59:56 PM 34.8861 -118.8925 345° North 226 260 15,500 1,306 Climbing Los Angeles Center
Wed 08:00:58 PM 34.9492 -118.8994 355° North 215 247 17,000 1,161 Climbing Los Angeles Center
Wed 08:02:00 PM 34.9969 -118.9039 356° North 214 246 17,900 1,161 Climbing Los Angeles Center
Wed 08:03:02 PM 35.0792 -118.9147 354° North 215 247 19,400 1,016 Climbing Los Angeles Center
Wed 08:04:04 PM 35.1394 -118.9222 354° North 218 251 20,000 290 Climbing Los Angeles Center
Wed 08:05:06 PM 35.2097 -118.9317 354° North 249 287 20,000  Level Los Angeles Center
Wed 08:06:08 PM 35.2672 -118.9394 354° North 256 295 20,000  Level Los Angeles Center
Wed 08:07:11 PM 35.3544 -118.9492 355° North 262 302 20,000  Level Los Angeles Center
Wed 08:08:13 PM 35.4281 -118.9592 354° North 265 305 20,000  Level Los Angeles Center
Wed 08:09:15 PM 35.5181 -118.9700 354° North 269 310 20,000  Level Los Angeles Center
Wed 08:10:17 PM 35.5933 -118.9800 354° North 271 312 20,000 -339 Level Los Angeles Center
Wed 08:11:19 PM 35.6692 -118.9903 354° North 274 315 19,300 -940 Descending Los Angeles Center
Wed 08:11:40 PM 35.6983 -118.9922 357° North 274 315 18,700 -1,373 Descending Oakland Center
Wed 08:12:42 PM 35.7797 -119.0008 355° North 285 328 17,400 -1,317 Descending Oakland Center
Wed 08:13:43 PM 35.8622 -119.0139 353° North 294 338 16,000 -1,377 Descending Oakland Center
Wed 08:14:44 PM 35.9433 -119.0358 348° North 298 343 14,600 -976 Descending Oakland Center
Wed 08:15:46 PM 36.0203 -119.0733 338° Northwest 300 345 14,000 -293 Descending Oakland Center
Wed 08:16:47 PM 36.0903 -119.1078 338° Northwest 284 327 14,000  Level Oakland Center
Wed 08:17:48 PM 36.1717 -119.1453 340° North 268 308 14,000 -295 Level Oakland Center
Wed 08:18:49 PM 36.2386 -119.1756 340° North 263 303 13,400 -1,561 Descending Oakland Center
Wed 08:19:51 PM 36.3064 -119.2072 339° North 262 302 10,800 -2,488 Descending Oakland Center
Wed 08:20:52 PM 36.3756 -119.2436 337° Northwest 268 308 8,300 -2,311 Descending Oakland Center
Wed 08:21:53 PM 36.4397 -119.2733 340° North 250 288 6,100 -1,902 Descending Oakland Center
Wed 08:22:55 PM 36.5019 -119.3022 340° North 242 278 4,400 -1,073 Descending Oakland Center
Wed 08:23:56 PM 36.5583 -119.3414 331° Northwest 247 284 3,900 -197 Descending Oakland Center
Wed 08:24:57 PM 36.5875 -119.4064 299° West 221 254 4,000 49 Climbing Oakland Center
Wed 08:25:59 PM 36.6208 -119.4853 298° West 216 249 4,000 -244 Level Oakland Center
Wed 08:27:00 PM 36.6550 -119.5444 306° West 215 247 3,500 -293 Descending Oakland Center
Wed 08:28:02 PM 36.6956 -119.5875 320° Northwest 194 223 3,400 -97 Descending Oakland Center

Login

Don't have an account? Register now (free) for customized features, flight alerts, and more!